createdAt,value
2019-03-29T00:00:08.659Z,16.03
2019-03-29T00:02:36.271Z,16.03
2019-03-29T00:05:04.010Z,11.23
2019-03-29T00:07:39.370Z,13.07
2019-03-29T00:10:01.661Z,15.10
2019-03-29T00:12:28.983Z,16.07
2019-03-29T00:14:56.258Z,12.73
2019-03-29T00:17:23.776Z,12.57
2019-03-29T00:19:51.183Z,10.33
2019-03-29T00:22:18.591Z,15.60
2019-03-29T00:24:46.015Z,13.70
2019-03-29T00:27:13.329Z,17.33
2019-03-29T00:29:40.795Z,15.30
2019-03-29T00:32:08.175Z,15.83
2019-03-29T00:34:35.692Z,14.07
2019-03-29T00:37:03.114Z,12.43
2019-03-29T00:39:30.643Z,12.07
2019-03-29T00:41:58.067Z,13.43
2019-03-29T00:44:26.206Z,14.23
2019-03-29T00:46:54.435Z,11.07
2019-03-29T00:49:21.827Z,13.40
2019-03-29T00:51:49.232Z,11.77
2019-03-29T00:54:16.811Z,14.57
2019-03-29T00:56:44.436Z,14.73
2019-03-29T00:59:11.863Z,13.37
2019-03-29T01:01:39.287Z,13.97
2019-03-29T01:04:06.700Z,15.13
2019-03-29T01:06:34.211Z,12.00
2019-03-29T01:09:01.721Z,18.07
2019-03-29T01:11:29.156Z,13.67
2019-03-29T01:13:56.734Z,14.30
2019-03-29T01:16:24.196Z,14.53
2019-03-29T01:18:51.579Z,14.40
2019-03-29T01:21:18.991Z,16.10
2019-03-29T01:23:46.593Z,14.77
2019-03-29T01:26:14.034Z,18.00
2019-03-29T01:28:41.471Z,13.43
2019-03-29T01:31:08.895Z,16.50
2019-03-29T01:33:36.585Z,12.07
2019-03-29T01:36:04.167Z,14.00
2019-03-29T01:38:31.642Z,14.53
2019-03-29T01:40:59.022Z,13.73
2019-03-29T01:43:26.494Z,16.53
2019-03-29T01:45:53.911Z,11.70
2019-03-29T01:48:22.362Z,17.00
2019-03-29T01:50:50.017Z,12.37
2019-03-29T01:53:17.415Z,12.10
2019-03-29T01:55:44.845Z,13.80
2019-03-29T01:58:12.271Z,14.83
2019-03-29T02:00:39.676Z,15.77
2019-03-29T02:03:07.236Z,15.80
2019-03-29T02:05:34.633Z,14.87
2019-03-29T02:08:02.259Z,17.23
2019-03-29T02:10:29.684Z,15.60
2019-03-29T02:12:57.125Z,13.97
2019-03-29T02:15:24.501Z,15.07
2019-03-29T02:17:52.047Z,13.07
2019-03-29T02:20:19.572Z,13.47
2019-03-29T02:22:46.961Z,15.87
2019-03-29T02:25:15.969Z,12.53
2019-03-29T02:27:43.639Z,13.20
2019-03-29T02:30:12.533Z,19.43
2019-03-29T02:32:39.884Z,20.10
2019-03-29T02:35:07.322Z,14.60
2019-03-29T02:37:34.822Z,12.87
2019-03-29T02:40:02.347Z,12.80
2019-03-29T02:42:29.623Z,13.07
2019-03-29T02:44:57.074Z,14.77
2019-03-29T02:47:24.527Z,13.67
2019-03-29T02:49:52.111Z,15.07
2019-03-29T02:52:19.614Z,15.10
2019-03-29T02:54:47.215Z,16.83
2019-03-29T02:57:15.600Z,17.80
2019-03-29T02:59:43.134Z,18.80
2019-03-29T03:02:10.531Z,15.90
2019-03-29T03:04:37.988Z,16.03
2019-03-29T03:07:05.540Z,16.03
2019-03-29T03:09:33.068Z,19.37
2019-03-29T03:12:00.920Z,13.67
2019-03-29T03:14:28.190Z,19.90
2019-03-29T03:16:55.631Z,15.33
2019-03-29T03:19:23.075Z,14.67
2019-03-29T03:21:50.649Z,15.70
2019-03-29T03:24:18.115Z,16.73
2019-03-29T03:26:45.492Z,14.17
2019-03-29T03:29:12.876Z,12.30
2019-03-29T03:31:40.164Z,15.40
2019-03-29T03:34:07.613Z,11.57
2019-03-29T03:36:35.003Z,12.80
2019-03-29T03:39:04.523Z,14.70
2019-03-29T03:41:32.109Z,15.67
2019-03-29T03:43:59.816Z,12.37
2019-03-29T03:46:27.353Z,14.70
2019-03-29T03:48:54.790Z,12.97
2019-03-29T03:51:22.311Z,12.17
2019-03-29T03:53:50.070Z,13.27
2019-03-29T03:56:19.709Z,15.40
2019-03-29T03:58:47.607Z,13.77
2019-03-29T04:01:14.989Z,16.87
2019-03-29T04:03:42.463Z,12.73
2019-03-29T04:06:09.907Z,13.13
2019-03-29T04:08:37.415Z,12.23
2019-03-29T04:11:04.725Z,11.37
2019-03-29T04:13:32.153Z,14.20
2019-03-29T04:15:59.640Z,13.33
2019-03-29T04:18:27.156Z,15.27
2019-03-29T04:20:54.654Z,15.50
2019-03-29T04:23:22.062Z,14.13
2019-03-29T04:25:49.332Z,13.10
2019-03-29T04:28:16.888Z,11.97
2019-03-29T04:30:44.412Z,13.53
2019-03-29T04:33:11.934Z,14.93
2019-03-29T04:35:39.351Z,15.73
2019-03-29T04:38:06.767Z,15.67
2019-03-29T04:40:34.323Z,12.03
2019-03-29T04:43:01.899Z,17.50
2019-03-29T04:45:29.217Z,16.70
2019-03-29T04:47:56.633Z,15.37
2019-03-29T04:50:24.079Z,14.10
2019-03-29T04:52:51.409Z,16.67
2019-03-29T04:55:18.823Z,14.23
2019-03-29T04:57:46.360Z,13.93
2019-03-29T05:00:14.040Z,14.93
2019-03-29T05:02:41.531Z,15.73
2019-03-29T05:05:09.068Z,15.53
2019-03-29T05:07:37.094Z,15.60
2019-03-29T05:10:05.253Z,15.63
2019-03-29T05:12:32.650Z,14.33
2019-03-29T05:15:00.104Z,13.83
2019-03-29T05:17:27.881Z,18.63
2019-03-29T05:19:55.355Z,20.50
2019-03-29T05:22:22.899Z,17.67
2019-03-29T05:24:50.427Z,16.30
2019-03-29T05:27:17.974Z,21.27
2019-03-29T05:29:45.273Z,18.70
2019-03-29T05:32:12.739Z,17.17
2019-03-29T05:34:40.158Z,17.53
2019-03-29T05:37:07.563Z,14.13
2019-03-29T05:39:34.967Z,13.60
2019-03-29T05:42:02.377Z,16.40
2019-03-29T05:44:29.806Z,20.47
2019-03-29T05:46:57.348Z,19.93
2019-03-29T05:49:24.763Z,16.67
2019-03-29T05:51:52.180Z,14.80
2019-03-29T05:54:19.449Z,18.93
2019-03-29T05:56:46.723Z,14.87
2019-03-29T05:59:14.177Z,17.30
2019-03-29T06:01:41.586Z,13.80
2019-03-29T06:04:09.223Z,13.10
2019-03-29T06:06:36.644Z,18.70
2019-03-29T06:09:05.658Z,18.37
2019-03-29T06:11:33.218Z,14.73
2019-03-29T06:14:00.619Z,14.63
2019-03-29T06:16:38.330Z,15.33
2019-03-29T06:18:57.315Z,12.50
2019-03-29T06:21:24.759Z,16.27
2019-03-29T06:23:52.255Z,10.63
2019-03-29T06:26:19.897Z,11.83
2019-03-29T06:28:47.303Z,11.23
2019-03-29T06:31:14.779Z,9.37
2019-03-29T06:33:44.606Z,11.70
2019-03-29T06:36:13.857Z,11.77
2019-03-29T06:38:42.719Z,12.10
2019-03-29T06:41:10.148Z,12.30
2019-03-29T06:43:37.559Z,11.40
2019-03-29T06:46:05.199Z,12.47
2019-03-29T06:48:32.609Z,11.47
2019-03-29T06:51:00.110Z,12.00
2019-03-29T06:53:27.751Z,10.90
2019-03-29T06:55:55.193Z,9.53
2019-03-29T06:58:22.495Z,8.70
2019-03-29T07:00:49.950Z,15.85
2019-03-29T07:03:17.383Z,15.13
2019-03-29T07:05:44.848Z,14.10
2019-03-29T07:08:12.135Z,14.20
2019-03-29T07:10:39.428Z,12.10
2019-03-29T07:13:06.955Z,16.27
2019-03-29T07:15:34.270Z,16.93
2019-03-29T07:18:01.824Z,18.02
2019-03-29T07:20:29.456Z,13.85
2019-03-29T07:22:57.075Z,12.63
2019-03-29T07:25:24.541Z,11.68
2019-03-29T07:27:52.399Z,13.18
2019-03-29T07:30:20.309Z,14.05
2019-03-29T07:32:47.706Z,12.70
2019-03-29T07:35:15.064Z,12.60
2019-03-29T07:37:42.371Z,13.10
2019-03-29T07:40:09.944Z,13.75
2019-03-29T07:42:37.409Z,12.53
2019-03-29T07:45:05.555Z,16.32
2019-03-29T07:47:32.974Z,12.43
2019-03-29T07:50:00.366Z,15.10
2019-03-29T07:52:27.795Z,19.12
2019-03-29T07:54:55.075Z,13.37
2019-03-29T07:57:22.654Z,14.07
2019-03-29T07:59:50.615Z,20.72
2019-03-29T08:02:18.327Z,14.07
2019-03-29T08:04:46.566Z,15.43
2019-03-29T08:07:26.625Z,14.55
2019-03-29T08:09:43.438Z,13.85
2019-03-29T08:12:10.746Z,15.25
2019-03-29T08:14:38.241Z,15.68
2019-03-29T08:17:05.553Z,14.38
2019-03-29T08:19:32.962Z,14.65
2019-03-29T08:22:00.232Z,17.73
2019-03-29T08:24:27.739Z,13.90
2019-03-29T08:26:55.209Z,15.50
2019-03-29T08:29:22.683Z,16.50
2019-03-29T08:31:50.076Z,15.75
2019-03-29T08:34:17.635Z,13.75
2019-03-29T08:36:44.964Z,12.20
2019-03-29T08:39:12.215Z,12.93
2019-03-29T08:41:39.635Z,16.42
2019-03-29T08:44:07.097Z,15.23
2019-03-29T08:46:34.611Z,17.73
2019-03-29T08:49:02.165Z,14.00
2019-03-29T08:51:29.669Z,16.43
2019-03-29T08:53:57.155Z,17.57
2019-03-29T08:56:24.708Z,15.63
2019-03-29T08:58:52.128Z,14.27
2019-03-29T09:01:19.903Z,15.50
2019-03-29T09:04:01.480Z,15.80
2019-03-29T09:06:16.851Z,15.17
2019-03-29T09:08:44.381Z,18.83
2019-03-29T09:11:11.687Z,13.80
2019-03-29T09:13:39.127Z,17.20
2019-03-29T09:16:06.567Z,14.50
2019-03-29T09:18:34.053Z,14.50
2019-03-29T09:21:01.486Z,15.77
2019-03-29T09:23:30.253Z,15.73
2019-03-29T09:25:57.891Z,15.70
2019-03-29T09:28:25.299Z,15.20
2019-03-29T09:30:56.201Z,13.13
2019-03-29T09:33:22.199Z,17.03
2019-03-29T09:35:49.725Z,13.77
2019-03-29T09:38:17.467Z,14.17
2019-03-29T09:40:53.504Z,13.80
2019-03-29T09:43:14.419Z,13.47
2019-03-29T09:45:41.739Z,9.47
2019-03-29T09:48:09.195Z,13.70
2019-03-29T09:50:36.708Z,13.73
2019-03-29T09:53:04.011Z,10.00
2019-03-29T09:55:31.634Z,11.17
2019-03-29T09:57:59.198Z,9.83
2019-03-29T10:00:26.574Z,12.40
2019-03-29T10:02:54.112Z,9.30
2019-03-29T10:05:21.632Z,7.37
2019-03-29T10:07:49.146Z,5.47
2019-03-29T10:10:16.907Z,6.33
2019-03-29T10:12:44.569Z,6.67
2019-03-29T10:15:12.667Z,7.00
2019-03-29T10:17:40.100Z,6.10
2019-03-29T10:20:08.209Z,5.83
2019-03-29T10:22:35.724Z,5.30
2019-03-29T10:25:18.300Z,8.13
2019-03-29T10:27:34.052Z,5.63
2019-03-29T10:30:01.590Z,5.70
2019-03-29T10:32:29.015Z,7.97
2019-03-29T10:34:56.460Z,5.20
2019-03-29T10:37:23.888Z,6.60
2019-03-29T10:39:51.439Z,8.37
2019-03-29T10:42:19.019Z,7.50
2019-03-29T10:44:49.243Z,7.97
2019-03-29T10:47:15.908Z,6.57
2019-03-29T10:49:43.238Z,7.73
2019-03-29T10:52:10.523Z,6.80
2019-03-29T10:54:37.887Z,10.27
2019-03-29T10:57:05.407Z,8.03
2019-03-29T10:59:32.869Z,5.47
2019-03-29T11:02:00.244Z,5.07
2019-03-29T11:04:27.623Z,6.43
2019-03-29T11:06:55.151Z,6.27
2019-03-29T11:09:22.976Z,6.27
2019-03-29T11:11:50.414Z,6.57
2019-03-29T11:14:17.719Z,4.87
2019-03-29T11:16:45.251Z,6.53
2019-03-29T11:19:12.624Z,5.47
2019-03-29T11:21:40.172Z,5.00
2019-03-29T11:24:09.346Z,5.47
2019-03-29T11:26:37.039Z,6.40
2019-03-29T11:29:04.533Z,5.27
2019-03-29T11:31:31.988Z,4.90
2019-03-29T11:33:59.497Z,4.53
2019-03-29T11:36:26.919Z,5.40
2019-03-29T11:38:54.509Z,3.70
2019-03-29T11:41:22.035Z,4.87
2019-03-29T11:43:49.442Z,5.73
2019-03-29T11:46:16.851Z,3.13
2019-03-29T11:48:44.395Z,4.90
2019-03-29T11:51:19.178Z,3.60
2019-03-29T11:53:41.126Z,5.67
2019-03-29T11:56:08.631Z,4.83
2019-03-29T11:58:36.144Z,4.87
2019-03-29T12:01:05.447Z,3.33
2019-03-29T12:03:33.048Z,5.50
2019-03-29T12:06:00.577Z,2.40
2019-03-29T12:08:28.140Z,3.83
2019-03-29T12:10:55.703Z,2.67
2019-03-29T12:13:23.211Z,3.42
2019-03-29T12:15:50.595Z,2.92
2019-03-29T12:18:18.259Z,2.27
2019-03-29T12:20:45.683Z,2.50
2019-03-29T12:23:12.993Z,5.37
2019-03-29T12:25:40.454Z,3.25
2019-03-29T12:28:08.182Z,3.30
2019-03-29T12:30:36.118Z,3.55
2019-03-29T12:33:03.634Z,2.37
2019-03-29T12:35:31.156Z,2.50
2019-03-29T12:37:58.686Z,3.47
2019-03-29T12:40:26.109Z,3.27
2019-03-29T12:42:53.632Z,4.72
2019-03-29T12:45:21.161Z,3.67
2019-03-29T12:47:48.599Z,3.58
2019-03-29T12:50:16.123Z,3.12
2019-03-29T12:52:43.691Z,3.00
2019-03-29T12:55:11.398Z,4.40
2019-03-29T12:57:39.392Z,3.25
2019-03-29T13:00:07.733Z,4.05
2019-03-29T13:02:35.215Z,3.75
2019-03-29T13:05:03.331Z,4.10
2019-03-29T13:07:30.903Z,2.90
2019-03-29T13:09:58.447Z,4.03
2019-03-29T13:12:25.842Z,3.20
2019-03-29T13:14:53.667Z,3.42
2019-03-29T13:17:21.350Z,3.20
2019-03-29T13:19:48.838Z,4.83
2019-03-29T13:22:16.527Z,4.75
2019-03-29T13:24:43.940Z,4.17
2019-03-29T13:27:11.391Z,5.37
2019-03-29T13:29:38.764Z,3.90
2019-03-29T13:32:06.307Z,7.12
2019-03-29T13:34:33.747Z,6.40
2019-03-29T13:37:01.048Z,4.10
2019-03-29T13:39:28.580Z,4.80
2019-03-29T13:41:55.834Z,5.77
2019-03-29T13:44:26.622Z,3.87
2019-03-29T13:46:52.867Z,4.47
2019-03-29T13:49:20.323Z,4.07
2019-03-29T13:51:47.863Z,4.87
2019-03-29T13:54:15.367Z,6.27
2019-03-29T13:56:42.929Z,7.30
2019-03-29T13:59:10.470Z,4.93
2019-03-29T14:01:37.742Z,4.17
2019-03-29T14:04:05.119Z,4.80
2019-03-29T14:06:32.526Z,4.37
2019-03-29T14:08:59.950Z,4.57
2019-03-29T14:11:27.392Z,4.97
2019-03-29T14:13:54.947Z,3.90
2019-03-29T14:16:22.352Z,6.70
2019-03-29T14:18:49.930Z,4.77
2019-03-29T14:21:17.219Z,4.33
2019-03-29T14:23:44.724Z,9.93
2019-03-29T14:26:12.399Z,5.00
2019-03-29T14:28:39.812Z,7.20
2019-03-29T14:31:07.129Z,5.43
2019-03-29T14:33:34.502Z,4.90
2019-03-29T14:36:01.901Z,3.17
2019-03-29T14:38:29.224Z,4.70
2019-03-29T14:40:56.724Z,4.00
2019-03-29T14:43:24.255Z,3.80
2019-03-29T14:45:51.603Z,4.83
2019-03-29T14:48:18.870Z,4.83
2019-03-29T14:50:46.304Z,3.87
2019-03-29T14:53:13.741Z,4.03
2019-03-29T14:55:41.291Z,3.90
2019-03-29T14:58:08.884Z,3.73
2019-03-29T15:00:38.372Z,4.70
2019-03-29T15:03:06.011Z,4.50
2019-03-29T15:05:33.535Z,3.63
2019-03-29T15:08:01.122Z,8.17
2019-03-29T15:10:28.851Z,3.03
2019-03-29T15:12:56.292Z,4.17
2019-03-29T15:15:23.796Z,4.60
2019-03-29T15:17:51.321Z,3.70
2019-03-29T15:20:18.818Z,3.70
2019-03-29T15:22:46.216Z,3.17
2019-03-29T15:25:13.728Z,3.83
2019-03-29T15:27:41.119Z,3.07
2019-03-29T15:30:09.073Z,2.83
2019-03-29T15:32:36.431Z,3.00
2019-03-29T15:35:04.089Z,4.60
2019-03-29T15:37:31.535Z,4.60
2019-03-29T15:39:59.147Z,4.20
2019-03-29T15:42:26.594Z,4.50
2019-03-29T15:44:53.992Z,4.17
2019-03-29T15:47:21.320Z,3.73
2019-03-29T15:49:55.701Z,3.00
2019-03-29T15:52:18.076Z,3.27
2019-03-29T15:54:45.507Z,2.60
2019-03-29T15:57:13.063Z,3.17
2019-03-29T15:59:40.455Z,3.33
2019-03-29T16:02:07.987Z,4.10
2019-03-29T16:04:35.630Z,6.07
2019-03-29T16:07:03.155Z,3.03
2019-03-29T16:09:30.598Z,3.17
2019-03-29T16:11:58.239Z,2.77
2019-03-29T16:14:25.772Z,3.70
2019-03-29T16:16:53.327Z,5.63
2019-03-29T16:19:20.864Z,3.37
2019-03-29T16:21:48.129Z,2.73
2019-03-29T16:24:15.694Z,2.30
2019-03-29T16:26:43.322Z,2.40
2019-03-29T16:29:10.856Z,4.67
2019-03-29T16:31:38.305Z,2.33
2019-03-29T16:34:05.979Z,2.90
2019-03-29T16:36:33.307Z,3.20
2019-03-29T16:39:00.735Z,3.03
2019-03-29T16:41:28.528Z,2.10
2019-03-29T16:43:59.562Z,3.40
2019-03-29T16:46:27.203Z,1.70
2019-03-29T16:48:54.668Z,2.20
2019-03-29T16:51:22.284Z,2.43
2019-03-29T16:53:49.804Z,2.57
2019-03-29T16:56:18.539Z,2.97
2019-03-29T16:58:46.235Z,4.37
2019-03-29T17:01:13.712Z,3.50
2019-03-29T17:03:42.367Z,3.57
2019-03-29T17:06:09.966Z,3.70
2019-03-29T17:08:37.507Z,2.87
2019-03-29T17:11:05.102Z,3.60
2019-03-29T17:13:32.508Z,2.50
2019-03-29T17:16:02.119Z,5.63
2019-03-29T17:18:29.855Z,3.30
2019-03-29T17:20:57.707Z,2.80
2019-03-29T17:23:25.272Z,8.03
2019-03-29T17:25:52.799Z,4.43
2019-03-29T17:28:20.135Z,3.93
2019-03-29T17:30:52.221Z,5.73
2019-03-29T17:33:22.307Z,19.03
2019-03-29T17:35:48.975Z,9.37
2019-03-29T17:38:16.362Z,3.90
2019-03-29T17:40:47.152Z,5.23
2019-03-29T17:43:14.682Z,7.10
2019-03-29T17:45:50.964Z,7.10
2019-03-29T17:48:18.412Z,6.33
2019-03-29T17:50:45.984Z,5.33
2019-03-29T17:53:13.418Z,5.67
2019-03-29T17:55:40.846Z,6.00
2019-03-29T17:58:08.407Z,7.90
2019-03-29T18:00:36.087Z,5.80
2019-03-29T18:03:03.622Z,4.37
2019-03-29T18:05:31.079Z,9.23
2019-03-29T18:07:58.605Z,12.47
2019-03-29T18:10:26.050Z,4.80
2019-03-29T18:12:53.449Z,3.83
2019-03-29T18:15:21.078Z,8.00
2019-03-29T18:17:48.647Z,6.07
2019-03-29T18:20:16.474Z,4.93
2019-03-29T18:22:43.945Z,3.97
2019-03-29T18:25:11.832Z,5.80
2019-03-29T18:27:39.301Z,6.47
2019-03-29T18:30:08.367Z,4.00
2019-03-29T18:32:36.547Z,8.93
2019-03-29T18:35:04.807Z,5.40
2019-03-29T18:37:33.118Z,5.40
2019-03-29T18:40:01.169Z,8.20
2019-03-29T18:42:28.598Z,5.43
2019-03-29T18:44:56.105Z,4.80
2019-03-29T18:47:23.651Z,6.83
2019-03-29T18:49:51.174Z,4.43
2019-03-29T18:52:18.630Z,6.07
2019-03-29T18:54:46.290Z,5.37
2019-03-29T18:57:15.759Z,5.97
2019-03-29T18:59:43.189Z,8.07
2019-03-29T19:02:10.832Z,9.13
2019-03-29T19:04:38.792Z,5.87
2019-03-29T19:07:06.313Z,5.10
2019-03-29T19:09:33.887Z,7.03
2019-03-29T19:12:01.284Z,6.23
2019-03-29T19:14:28.716Z,5.47
2019-03-29T19:16:59.082Z,5.00
2019-03-29T19:19:25.746Z,7.70
2019-03-29T19:21:53.238Z,5.47
2019-03-29T19:24:20.762Z,7.37
2019-03-29T19:26:48.074Z,6.13
2019-03-29T19:29:15.643Z,4.13
2019-03-29T19:31:43.179Z,5.53
2019-03-29T19:34:12.194Z,8.17
2019-03-29T19:36:39.855Z,5.97
2019-03-29T19:39:07.426Z,7.50
2019-03-29T19:41:35.054Z,7.73
2019-03-29T19:44:02.571Z,4.80
2019-03-29T19:46:29.972Z,6.07
2019-03-29T19:48:57.715Z,6.67
2019-03-29T19:51:25.203Z,9.43
2019-03-29T19:54:06.371Z,10.07
2019-03-29T19:56:22.195Z,10.50
2019-03-29T19:58:49.817Z,16.50
2019-03-29T20:01:17.612Z,22.63
2019-03-29T20:03:45.144Z,23.60
2019-03-29T20:06:12.812Z,13.30
2019-03-29T20:08:40.368Z,12.43
2019-03-29T20:11:07.910Z,17.83
2019-03-29T20:13:35.443Z,15.10
2019-03-29T20:16:02.810Z,20.93
2019-03-29T20:18:31.479Z,23.10
2019-03-29T20:20:59.114Z,21.50
2019-03-29T20:23:26.669Z,14.17
2019-03-29T20:25:53.927Z,12.00
2019-03-29T20:28:21.369Z,8.70
2019-03-29T20:30:48.791Z,9.30
2019-03-29T20:33:16.351Z,8.87
2019-03-29T20:35:43.659Z,9.33
2019-03-29T20:38:11.214Z,6.73
2019-03-29T20:40:38.689Z,6.53
2019-03-29T20:43:06.141Z,6.70
2019-03-29T20:45:33.615Z,7.27
2019-03-29T20:48:01.169Z,6.93
2019-03-29T20:50:28.617Z,8.37
2019-03-29T20:52:56.056Z,8.33
2019-03-29T20:55:23.631Z,7.70
2019-03-29T20:57:51.175Z,8.80
2019-03-29T21:00:19.258Z,11.93
2019-03-29T21:02:46.692Z,7.33
2019-03-29T21:05:14.332Z,8.23
2019-03-29T21:07:42.140Z,6.80
2019-03-29T21:10:09.827Z,8.37
2019-03-29T21:12:37.445Z,8.33
2019-03-29T21:15:05.664Z,10.50
2019-03-29T21:17:33.211Z,5.47
2019-03-29T21:20:00.521Z,7.33
2019-03-29T21:22:27.857Z,11.20
2019-03-29T21:24:55.247Z,7.67
2019-03-29T21:27:22.740Z,7.40
2019-03-29T21:29:50.285Z,8.43
2019-03-29T21:32:17.727Z,10.03
2019-03-29T21:34:45.207Z,11.83
2019-03-29T21:37:12.602Z,7.67
2019-03-29T21:39:40.044Z,15.53
2019-03-29T21:42:07.534Z,18.30
2019-03-29T21:44:35.939Z,18.20
2019-03-29T21:47:03.415Z,13.63
2019-03-29T21:49:30.835Z,11.43
2019-03-29T21:51:58.407Z,10.83
2019-03-29T21:54:25.799Z,9.30
2019-03-29T21:56:53.343Z,9.10
2019-03-29T21:59:25.224Z,11.40
2019-03-29T22:01:52.931Z,8.47
2019-03-29T22:04:20.463Z,10.97
2019-03-29T22:06:47.761Z,7.57
2019-03-29T22:09:15.250Z,9.43
2019-03-29T22:11:42.659Z,8.87
2019-03-29T22:14:10.216Z,7.90
2019-03-29T22:16:37.624Z,9.30
2019-03-29T22:19:05.213Z,8.47
2019-03-29T22:21:32.521Z,10.13
2019-03-29T22:23:59.997Z,8.87
2019-03-29T22:26:27.566Z,9.93
2019-03-29T22:28:55.003Z,10.53
2019-03-29T22:31:22.427Z,7.87
2019-03-29T22:33:49.942Z,10.23
2019-03-29T22:36:17.295Z,9.03
2019-03-29T22:38:44.862Z,11.70
2019-03-29T22:41:12.511Z,9.87
2019-03-29T22:43:39.935Z,10.13
2019-03-29T22:46:07.367Z,8.57
2019-03-29T22:48:36.374Z,8.70
2019-03-29T22:51:03.943Z,11.37
2019-03-29T22:53:32.960Z,11.13
2019-03-29T22:56:00.425Z,14.57
2019-03-29T22:58:28.652Z,10.60
2019-03-29T23:00:57.019Z,12.77
2019-03-29T23:03:24.555Z,10.90
2019-03-29T23:05:52.034Z,11.80
2019-03-29T23:08:19.558Z,15.10
2019-03-29T23:10:47.292Z,14.00
2019-03-29T23:13:14.774Z,13.30
2019-03-29T23:15:42.187Z,17.40
2019-03-29T23:18:09.570Z,10.30
2019-03-29T23:20:36.909Z,11.30
2019-03-29T23:23:04.294Z,14.63
2019-03-29T23:25:31.820Z,12.60
2019-03-29T23:27:59.133Z,12.40
2019-03-29T23:30:26.571Z,12.10
2019-03-29T23:32:53.977Z,11.77
2019-03-29T23:35:21.398Z,13.97
2019-03-29T23:37:48.698Z,12.80
2019-03-29T23:40:16.242Z,15.40
2019-03-29T23:42:43.596Z,14.70
2019-03-29T23:45:11.168Z,13.30
2019-03-29T23:47:38.714Z,12.67
2019-03-29T23:50:06.239Z,13.90
2019-03-29T23:52:33.679Z,12.50
2019-03-29T23:55:01.084Z,13.10
2019-03-29T23:57:28.631Z,18.20
2019-03-29T23:59:56.031Z,12.97
